createdAt,value
2023-03-21T00:01:55.312Z,12.52
2023-03-21T00:04:24.131Z,12.45
2023-03-21T00:06:52.609Z,11.43
2023-03-21T00:09:21.278Z,12.77
2023-03-21T00:11:50.020Z,11.90
2023-03-21T00:14:19.909Z,11.75
2023-03-21T00:16:52.174Z,11.40
2023-03-21T00:19:30.249Z,11.57
2023-03-21T00:22:08.058Z,11.00
2023-03-21T00:24:38.282Z,11.80
2023-03-21T00:27:44.876Z,9.95
2023-03-21T00:29:59.771Z,11.90
2023-03-21T00:32:28.323Z,10.55
2023-03-21T00:35:16.399Z,10.68
2023-03-21T00:37:47.598Z,10.55
2023-03-21T00:40:26.755Z,8.55
2023-03-21T00:43:31.545Z,10.13
2023-03-21T00:46:00.774Z,8.57
2023-03-21T00:48:30.651Z,9.25
2023-03-21T00:51:00.718Z,8.30
2023-03-21T00:53:31.246Z,7.60
2023-03-21T00:55:59.829Z,8.35
2023-03-21T00:58:28.459Z,8.05
2023-03-21T01:00:59.499Z,7.75
2023-03-21T01:03:28.962Z,8.38
2023-03-21T01:06:04.969Z,6.95
2023-03-21T01:08:50.686Z,7.32
2023-03-21T01:11:22.851Z,7.70
2023-03-21T01:13:57.877Z,7.15
2023-03-21T01:16:30.805Z,6.78
2023-03-21T01:18:59.733Z,7.13
2023-03-21T01:21:28.252Z,5.82
2023-03-21T01:23:58.030Z,5.95
2023-03-21T01:26:26.455Z,6.07
2023-03-21T01:28:54.953Z,6.70
2023-03-21T01:31:23.429Z,6.90
2023-03-21T01:33:52.011Z,6.68
2023-03-21T01:36:24.098Z,6.70
2023-03-21T01:38:53.845Z,6.93
2023-03-21T01:41:41.668Z,6.53
2023-03-21T01:44:16.917Z,7.05
2023-03-21T01:46:57.460Z,6.10
2023-03-21T01:49:39.372Z,6.65
2023-03-21T01:52:17.226Z,7.13
2023-03-21T01:54:55.680Z,6.95
2023-03-21T01:57:40.415Z,7.18
2023-03-21T02:00:15.326Z,6.85
2023-03-21T02:02:52.627Z,6.93
2023-03-21T02:05:26.216Z,7.45
2023-03-21T02:08:09.085Z,8.35
2023-03-21T02:10:38.085Z,8.88
2023-03-21T02:13:53.604Z,8.02
2023-03-21T02:16:50.848Z,8.05
2023-03-21T02:19:53.090Z,7.22
2023-03-21T02:22:45.769Z,8.07
2023-03-21T02:25:41.441Z,8.05
2023-03-21T02:28:15.942Z,8.10
2023-03-21T02:31:33.721Z,8.88
2023-03-21T02:34:41.196Z,8.23
2023-03-21T02:37:28.918Z,8.18
2023-03-21T02:40:17.428Z,10.23
2023-03-21T02:43:00.939Z,8.98
2023-03-21T02:45:37.170Z,9.05
2023-03-21T02:48:17.349Z,9.02
2023-03-21T02:50:58.516Z,9.43
2023-03-21T02:53:34.080Z,8.93
2023-03-21T02:56:03.441Z,9.52
2023-03-21T02:58:33.855Z,9.45
2023-03-21T03:01:02.307Z,9.82
2023-03-21T03:03:34.557Z,9.60
2023-03-21T03:06:08.749Z,11.30
2023-03-21T03:08:56.378Z,9.90
2023-03-21T03:11:32.207Z,10.70
2023-03-21T03:14:42.037Z,10.55
2023-03-21T03:17:28.357Z,10.10
2023-03-21T03:20:17.014Z,11.02
2023-03-21T03:22:56.113Z,11.85
2023-03-21T03:25:42.013Z,10.10
2023-03-21T03:28:15.604Z,9.88
2023-03-21T03:30:57.488Z,10.82
2023-03-21T03:33:38.020Z,10.02
2023-03-21T03:36:12.784Z,10.38
2023-03-21T03:38:50.422Z,12.18
2023-03-21T03:41:26.050Z,11.18
2023-03-21T03:43:58.882Z,12.77
2023-03-21T03:46:33.379Z,11.20
2023-03-21T03:49:06.364Z,10.70
2023-03-21T03:51:40.781Z,11.48
2023-03-21T03:54:13.859Z,11.48
2023-03-21T03:56:44.525Z,10.85
2023-03-21T03:59:14.693Z,12.15
2023-03-21T04:01:43.590Z,11.65
2023-03-21T04:04:13.840Z,11.82
2023-03-21T04:06:42.419Z,10.98
2023-03-21T04:09:20.456Z,12.23
2023-03-21T04:11:51.972Z,10.85
2023-03-21T04:14:20.426Z,11.27
2023-03-21T04:16:49.146Z,11.95
2023-03-21T04:19:18.246Z,11.88
2023-03-21T04:21:47.447Z,12.27
2023-03-21T04:24:17.253Z,12.25
2023-03-21T04:26:45.766Z,11.23
2023-03-21T04:29:15.483Z,11.23
2023-03-21T04:31:43.861Z,10.90
2023-03-21T04:34:12.942Z,11.20
2023-03-21T04:36:44.991Z,10.77
2023-03-21T04:39:13.835Z,10.80
2023-03-21T04:41:44.011Z,10.05
2023-03-21T04:44:15.554Z,10.43
2023-03-21T04:46:44.108Z,10.30
2023-03-21T04:49:12.666Z,9.65
2023-03-21T04:51:41.339Z,11.65
2023-03-21T04:56:38.039Z,10.35
2023-03-21T04:59:09.214Z,10.75
2023-03-21T05:01:41.115Z,9.73
2023-03-21T05:04:09.854Z,9.65
2023-03-21T05:06:38.309Z,10.40
2023-03-21T05:09:07.278Z,10.13
2023-03-21T05:11:38.753Z,10.43
2023-03-21T05:14:08.321Z,10.40
2023-03-21T05:16:38.751Z,9.40
2023-03-21T05:19:08.552Z,10.77
2023-03-21T05:21:41.802Z,11.45
2023-03-21T05:24:14.136Z,11.13
2023-03-21T05:26:44.290Z,10.85
2023-03-21T05:29:13.318Z,9.73
2023-03-21T05:31:49.591Z,10.75
2023-03-21T05:34:19.598Z,11.38
2023-03-21T05:36:47.967Z,10.18
2023-03-21T05:39:16.453Z,10.48
2023-03-21T05:41:44.804Z,10.25
2023-03-21T05:44:13.892Z,9.80
2023-03-21T05:46:43.286Z,10.00
2023-03-21T05:49:12.971Z,10.52
2023-03-21T05:51:42.644Z,11.13
2023-03-21T05:54:16.613Z,10.23
2023-03-21T05:56:45.188Z,9.95
2023-03-21T05:59:13.813Z,9.55
2023-03-21T06:01:42.180Z,9.88
2023-03-21T06:04:10.809Z,11.25
2023-03-21T06:06:39.211Z,10.35
2023-03-21T06:09:09.106Z,10.25
2023-03-21T06:11:39.664Z,10.82
2023-03-21T06:14:08.112Z,10.55
2023-03-21T06:16:37.173Z,10.77
2023-03-21T06:19:05.653Z,11.55
2023-03-21T06:21:34.125Z,11.82
2023-03-21T06:24:02.649Z,13.52
2023-03-21T06:26:42.815Z,12.20
2023-03-21T06:29:11.586Z,14.70
2023-03-21T06:31:40.364Z,13.27
2023-03-21T06:34:10.798Z,14.35
2023-03-21T06:36:39.225Z,16.08
2023-03-21T06:39:08.861Z,16.20
2023-03-21T06:41:37.341Z,17.17
2023-03-21T06:44:08.982Z,15.82
2023-03-21T06:46:37.873Z,16.13
2023-03-21T06:49:06.517Z,15.90
2023-03-21T06:51:34.991Z,17.63
2023-03-21T06:54:03.466Z,16.50
2023-03-21T06:56:32.081Z,16.13
2023-03-21T06:59:00.639Z,15.70
2023-03-21T07:01:30.891Z,15.85
2023-03-21T07:03:59.539Z,16.83
2023-03-21T07:06:28.239Z,16.98
2023-03-21T07:08:57.136Z,14.48
2023-03-21T07:11:25.922Z,15.40
2023-03-21T07:13:54.488Z,15.60
2023-03-21T07:16:23.009Z,15.60
2023-03-21T07:18:53.110Z,15.73
2023-03-21T07:21:21.689Z,15.45
2023-03-21T07:23:50.744Z,16.55
2023-03-21T07:26:19.287Z,14.02
2023-03-21T07:28:47.662Z,13.85
2023-03-21T07:31:17.964Z,12.52
2023-03-21T07:33:46.595Z,13.05
2023-03-21T07:36:17.258Z,14.07
2023-03-21T07:38:47.138Z,13.68
2023-03-21T07:43:45.309Z,15.43
2023-03-21T07:46:14.288Z,12.93
2023-03-21T07:48:42.910Z,12.35
2023-03-21T07:51:11.230Z,14.95
2023-03-21T07:53:41.927Z,13.70
2023-03-21T07:56:10.988Z,13.15
2023-03-21T07:58:39.596Z,14.27
2023-03-21T08:01:08.298Z,13.10
2023-03-21T08:03:38.103Z,13.05
2023-03-21T08:06:07.225Z,12.15
2023-03-21T08:08:35.666Z,12.05
2023-03-21T08:11:06.872Z,14.38
2023-03-21T08:13:35.317Z,12.90
2023-03-21T08:16:03.840Z,11.48
2023-03-21T08:18:32.345Z,11.25
2023-03-21T08:21:00.995Z,10.18
2023-03-21T08:23:29.658Z,11.85
2023-03-21T08:25:58.726Z,10.80
2023-03-21T08:28:29.184Z,10.85
2023-03-21T08:30:57.747Z,11.02
2023-03-21T08:33:26.277Z,11.70
2023-03-21T08:35:54.849Z,11.45
2023-03-21T08:38:23.285Z,11.77
2023-03-21T08:40:51.822Z,9.75
2023-03-21T08:43:20.173Z,10.80
2023-03-21T08:45:50.086Z,8.90
2023-03-21T08:48:19.332Z,9.15
2023-03-21T08:50:48.324Z,8.43
2023-03-21T08:53:16.855Z,9.30
2023-03-21T08:55:45.457Z,7.68
2023-03-21T08:58:13.961Z,6.53
2023-03-21T09:00:42.396Z,8.73
2023-03-21T09:03:12.396Z,8.35
2023-03-21T09:05:40.779Z,8.40
2023-03-21T09:08:09.165Z,8.07
2023-03-21T09:10:40.550Z,7.32
2023-03-21T09:13:08.912Z,6.53
2023-03-21T09:15:37.772Z,6.75
2023-03-21T09:18:15.014Z,7.22
2023-03-21T09:20:46.718Z,6.38
2023-03-21T09:23:15.743Z,7.25
2023-03-21T09:25:46.248Z,7.60
2023-03-21T09:28:14.754Z,8.23
2023-03-21T09:30:43.122Z,7.93
2023-03-21T09:33:13.058Z,8.25
2023-03-21T09:35:42.660Z,8.90
2023-03-21T09:38:12.544Z,8.23
2023-03-21T09:40:59.383Z,8.23
2023-03-21T09:43:42.479Z,7.72
2023-03-21T09:46:18.504Z,7.45
2023-03-21T09:48:57.458Z,8.95
2023-03-21T09:51:29.262Z,8.25
2023-03-21T09:54:04.162Z,8.98
2023-03-21T09:56:33.045Z,9.68
2023-03-21T09:59:03.168Z,10.55
2023-03-21T10:01:34.698Z,10.57
2023-03-21T10:04:06.347Z,11.10
2023-03-21T10:06:40.249Z,11.23
2023-03-21T10:09:16.224Z,12.38
2023-03-21T10:11:48.743Z,13.02
2023-03-21T10:14:20.532Z,12.88
2023-03-21T10:16:53.428Z,12.55
2023-03-21T10:19:23.323Z,12.05
2023-03-21T10:22:02.693Z,11.88
2023-03-21T10:24:35.566Z,10.02
2023-03-21T10:27:05.612Z,9.75
2023-03-21T10:29:44.513Z,9.10
2023-03-21T10:32:16.706Z,9.60
2023-03-21T10:34:49.027Z,8.93
2023-03-21T10:37:18.285Z,10.20
2023-03-21T10:39:50.267Z,9.15
2023-03-21T10:42:23.941Z,9.57
2023-03-21T10:44:54.337Z,8.70
2023-03-21T10:47:26.018Z,9.18
2023-03-21T10:50:11.102Z,7.88
2023-03-21T10:52:46.437Z,8.60
2023-03-21T10:55:24.436Z,7.25
2023-03-21T10:58:00.598Z,7.25
2023-03-21T11:00:35.333Z,6.70
2023-03-21T11:03:04.489Z,7.15
2023-03-21T11:05:38.578Z,5.65
2023-03-21T11:08:13.246Z,6.20
2023-03-21T11:10:53.673Z,6.70
2023-03-21T11:13:27.089Z,7.00
2023-03-21T11:15:59.940Z,6.32
2023-03-21T11:18:33.186Z,7.80
2023-03-21T11:21:05.758Z,6.22
2023-03-21T11:23:39.857Z,6.47
2023-03-21T11:26:13.203Z,7.75
2023-03-21T11:28:44.839Z,6.75
2023-03-21T11:31:14.121Z,6.18
2023-03-21T11:33:48.498Z,5.82
2023-03-21T11:36:34.678Z,6.90
2023-03-21T11:39:15.958Z,7.50
2023-03-21T11:41:49.124Z,7.07
2023-03-21T11:44:33.486Z,6.47
2023-03-21T11:47:03.186Z,6.32
2023-03-21T11:49:32.162Z,7.45
2023-03-21T11:52:19.818Z,7.07
2023-03-21T11:55:18.199Z,5.72
2023-03-21T11:58:13.527Z,6.85
2023-03-21T12:00:52.735Z,6.50
2023-03-21T12:03:48.798Z,5.75
2023-03-21T12:06:26.520Z,5.78
2023-03-21T12:09:07.031Z,6.07
2023-03-21T12:11:53.168Z,5.65
2023-03-21T12:14:44.213Z,5.35
2023-03-21T12:17:30.732Z,4.85
2023-03-21T12:20:14.159Z,4.40
2023-03-21T12:22:53.930Z,4.03
2023-03-21T12:25:28.936Z,4.78
2023-03-21T12:28:09.704Z,5.28
2023-03-21T12:30:52.552Z,4.40
2023-03-21T12:33:45.535Z,3.65
2023-03-21T12:36:27.425Z,4.22
2023-03-21T12:39:07.149Z,3.20
2023-03-21T12:41:44.515Z,3.40
2023-03-21T12:44:16.005Z,2.63
2023-03-21T12:46:48.505Z,4.93
2023-03-21T12:49:22.312Z,3.38
2023-03-21T12:51:54.776Z,3.20
2023-03-21T12:54:29.351Z,3.55
2023-03-21T12:57:05.583Z,2.90
2023-03-21T12:59:39.827Z,3.35
2023-03-21T13:02:20.237Z,3.63
2023-03-21T13:04:59.499Z,3.05
2023-03-21T13:07:34.800Z,2.42
2023-03-21T13:10:12.782Z,2.42
2023-03-21T13:12:48.772Z,3.10
2023-03-21T13:15:36.698Z,2.80
2023-03-21T13:18:16.935Z,3.45
2023-03-21T13:20:49.042Z,3.10
2023-03-21T13:23:19.475Z,3.38
2023-03-21T13:25:50.445Z,2.30
2023-03-21T13:28:22.662Z,2.53
2023-03-21T13:30:52.447Z,2.80
2023-03-21T13:33:30.781Z,2.72
2023-03-21T13:36:05.730Z,2.58
2023-03-21T13:38:40.016Z,3.17
2023-03-21T13:41:13.030Z,3.65
2023-03-21T13:43:45.408Z,3.13
2023-03-21T13:46:15.823Z,3.72
2023-03-21T13:48:59.458Z,3.40
2023-03-21T13:51:45.887Z,3.47
2023-03-21T13:54:20.063Z,3.33
2023-03-21T13:56:54.774Z,3.08
2023-03-21T13:59:39.413Z,3.17
2023-03-21T14:02:30.202Z,2.88
2023-03-21T14:05:05.696Z,2.80
2023-03-21T14:07:37.992Z,3.00
2023-03-21T14:10:18.303Z,2.95
2023-03-21T14:12:48.452Z,2.97
2023-03-21T14:15:20.687Z,4.00
2023-03-21T14:17:54.313Z,3.17
2023-03-21T14:20:26.870Z,2.78
2023-03-21T14:22:55.981Z,3.03
2023-03-21T14:25:37.278Z,3.10
2023-03-21T14:28:16.815Z,3.30
2023-03-21T14:30:45.896Z,3.25
2023-03-21T14:33:19.969Z,2.65
2023-03-21T14:35:50.874Z,2.95
2023-03-21T14:38:23.011Z,2.40
2023-03-21T14:40:54.657Z,2.70
2023-03-21T14:43:24.921Z,2.75
2023-03-21T14:45:55.473Z,2.70
2023-03-21T14:48:31.482Z,2.65
2023-03-21T14:51:05.955Z,2.45
2023-03-21T14:53:38.585Z,3.30
2023-03-21T14:56:11.538Z,3.05
2023-03-21T14:58:42.049Z,2.35
2023-03-21T15:01:17.517Z,4.60
2023-03-21T15:03:47.757Z,3.03
2023-03-21T15:06:17.685Z,2.40
2023-03-21T15:08:56.146Z,2.72
2023-03-21T15:11:31.908Z,3.22
2023-03-21T15:14:03.796Z,2.80
2023-03-21T15:16:32.729Z,3.05
2023-03-21T15:19:05.221Z,2.67
2023-03-21T15:21:39.099Z,2.83
2023-03-21T15:24:13.848Z,2.47
2023-03-21T15:26:45.872Z,3.05
2023-03-21T15:29:16.180Z,2.78
2023-03-21T15:31:45.476Z,3.20
2023-03-21T15:34:21.926Z,3.30
2023-03-21T15:36:58.002Z,2.42
2023-03-21T15:39:30.090Z,3.05
2023-03-21T15:42:01.655Z,2.50
2023-03-21T15:44:31.020Z,3.65
2023-03-21T15:46:59.604Z,3.20
2023-03-21T15:49:31.067Z,2.80
2023-03-21T15:52:06.538Z,3.10
2023-03-21T15:54:41.651Z,2.78
2023-03-21T15:57:22.817Z,3.05
2023-03-21T15:59:59.038Z,3.08
2023-03-21T16:02:31.398Z,3.08
2023-03-21T16:05:02.037Z,3.08
2023-03-21T16:07:35.167Z,3.30
2023-03-21T16:10:05.625Z,2.80
2023-03-21T16:12:35.144Z,6.03
2023-03-21T16:15:03.648Z,3.72
2023-03-21T16:17:37.482Z,5.13
2023-03-21T16:20:17.387Z,3.30
2023-03-21T16:22:47.688Z,3.08
2023-03-21T16:25:16.368Z,2.50
2023-03-21T16:27:45.530Z,2.88
2023-03-21T16:30:15.809Z,5.45
2023-03-21T16:32:44.859Z,3.95
2023-03-21T16:35:28.010Z,3.03
2023-03-21T16:37:58.773Z,3.15
2023-03-21T16:40:31.454Z,3.55
2023-03-21T16:43:01.181Z,3.28
2023-03-21T16:45:30.741Z,2.55
2023-03-21T16:48:00.057Z,3.10
2023-03-21T16:50:32.203Z,3.35
2023-03-21T16:53:03.010Z,3.22
2023-03-21T16:55:36.037Z,3.53
2023-03-21T16:58:05.880Z,3.05
2023-03-21T17:00:34.951Z,3.17
2023-03-21T17:03:13.823Z,3.90
2023-03-21T17:05:42.986Z,4.70
2023-03-21T17:08:16.884Z,4.63
2023-03-21T17:10:46.188Z,3.75
2023-03-21T17:13:14.984Z,3.10
2023-03-21T17:15:44.243Z,3.33
2023-03-21T17:18:15.939Z,3.40
2023-03-21T17:20:45.332Z,3.78
2023-03-21T17:23:14.412Z,2.65
2023-03-21T17:25:45.284Z,3.25
2023-03-21T17:28:14.704Z,3.50
2023-03-21T17:30:43.818Z,3.55
2023-03-21T17:33:12.665Z,3.35
2023-03-21T17:35:41.047Z,2.90
2023-03-21T17:38:16.438Z,4.13
2023-03-21T17:40:46.562Z,3.53
2023-03-21T17:43:19.690Z,3.65
2023-03-21T17:45:48.473Z,2.90
2023-03-21T17:48:17.419Z,3.83
2023-03-21T17:50:46.554Z,3.78
2023-03-21T17:53:15.331Z,3.28
2023-03-21T17:55:44.362Z,3.20
2023-03-21T17:58:14.858Z,3.45
2023-03-21T18:00:43.920Z,4.55
2023-03-21T18:03:13.322Z,4.15
2023-03-21T18:05:42.221Z,3.90
2023-03-21T18:08:13.058Z,4.10
2023-03-21T18:10:43.166Z,3.72
2023-03-21T18:13:14.033Z,3.90
2023-03-21T18:15:44.211Z,3.28
2023-03-21T18:18:14.455Z,3.97
2023-03-21T18:20:51.828Z,3.92
2023-03-21T18:23:22.626Z,4.53
2023-03-21T18:25:53.094Z,5.22
2023-03-21T18:28:23.236Z,4.38
2023-03-21T18:31:08.490Z,4.30
2023-03-21T18:33:41.342Z,6.10
2023-03-21T18:36:13.567Z,4.97
2023-03-21T18:38:42.916Z,5.60
2023-03-21T18:41:11.965Z,9.13
2023-03-21T18:44:09.144Z,4.30
2023-03-21T18:46:32.992Z,4.50
2023-03-21T18:49:27.075Z,4.38
2023-03-21T18:51:50.971Z,4.45
2023-03-21T18:54:20.474Z,4.60
2023-03-21T18:57:33.757Z,4.47
2023-03-21T18:59:41.203Z,7.68
2023-03-21T19:02:10.077Z,5.78
2023-03-21T19:04:39.175Z,4.03
2023-03-21T19:07:08.556Z,4.10
2023-03-21T19:10:15.922Z,4.78
2023-03-21T19:12:27.368Z,5.38
2023-03-21T19:14:57.874Z,4.80
2023-03-21T19:18:21.816Z,4.57
2023-03-21T19:20:18.355Z,6.25
2023-03-21T19:22:47.632Z,4.72
2023-03-21T19:25:17.076Z,5.03
2023-03-21T19:27:46.502Z,5.07
2023-03-21T19:30:17.415Z,4.82
2023-03-21T19:32:47.055Z,4.90
2023-03-21T19:35:16.308Z,4.50
2023-03-21T19:37:46.903Z,4.32
2023-03-21T19:40:15.880Z,5.47
2023-03-21T19:42:44.881Z,4.57
2023-03-21T19:45:14.348Z,7.97
2023-03-21T19:47:44.903Z,5.70
2023-03-21T19:53:02.867Z,5.63
2023-03-21T19:55:32.041Z,5.47
2023-03-21T19:58:06.105Z,5.80
2023-03-21T20:00:36.525Z,4.43
2023-03-21T20:03:08.955Z,5.50
2023-03-21T20:05:38.366Z,4.70
2023-03-21T20:08:11.146Z,4.63
2023-03-21T20:10:41.547Z,5.30
2023-03-21T20:13:11.700Z,5.22
2023-03-21T20:15:47.731Z,6.50
2023-03-21T20:18:18.557Z,6.20
2023-03-21T20:20:47.289Z,5.70
2023-03-21T20:23:16.180Z,8.30
2023-03-21T20:25:45.980Z,8.02
2023-03-21T20:28:24.629Z,8.90
2023-03-21T20:30:58.217Z,6.85
2023-03-21T20:33:29.132Z,8.02
2023-03-21T20:38:48.085Z,6.70
2023-03-21T20:41:16.810Z,5.93
2023-03-21T20:46:37.111Z,6.38
2023-03-21T20:49:09.933Z,6.10
2023-03-21T20:52:44.651Z,5.38
2023-03-21T20:54:27.787Z,5.10
2023-03-21T20:56:56.766Z,4.93
2023-03-21T20:59:28.013Z,4.80
2023-03-21T21:01:58.517Z,4.93
2023-03-21T21:04:48.163Z,5.00
2023-03-21T21:07:21.418Z,5.15
2023-03-21T21:09:50.573Z,5.40
2023-03-21T21:12:19.742Z,5.70
2023-03-21T21:14:49.133Z,4.03
2023-03-21T21:17:40.328Z,4.85
2023-03-21T21:20:17.584Z,4.65
2023-03-21T21:22:58.415Z,6.60
2023-03-21T21:25:32.088Z,6.70
2023-03-21T21:28:10.244Z,5.03
2023-03-21T21:30:50.601Z,4.60
2023-03-21T21:33:22.977Z,5.03
2023-03-21T21:35:57.579Z,4.07
2023-03-21T21:38:30.804Z,4.18
2023-03-21T21:41:04.624Z,4.20
2023-03-21T21:43:39.232Z,4.40
2023-03-21T21:46:10.953Z,4.15
2023-03-21T21:48:44.675Z,5.07
2023-03-21T21:51:18.131Z,3.92
2023-03-21T21:53:50.454Z,4.47
2023-03-21T21:56:22.800Z,6.78
2023-03-21T21:58:53.529Z,6.85
2023-03-21T22:01:22.432Z,4.85
2023-03-21T22:03:51.632Z,4.70
2023-03-21T22:06:21.485Z,4.22
2023-03-21T22:08:52.055Z,4.20
2023-03-21T22:11:21.358Z,3.75
2023-03-21T22:13:50.471Z,3.85
2023-03-21T22:16:19.414Z,4.53
2023-03-21T22:18:48.456Z,4.60
2023-03-21T22:21:17.050Z,3.95
2023-03-21T22:23:47.368Z,4.57
2023-03-21T22:26:16.685Z,4.47
2023-03-21T22:28:45.578Z,4.55
2023-03-21T22:31:16.582Z,4.47
2023-03-21T22:33:45.850Z,5.32
2023-03-21T22:36:14.955Z,4.20
2023-03-21T22:38:43.915Z,4.93
2023-03-21T22:41:14.016Z,4.05
2023-03-21T22:43:42.617Z,4.47
2023-03-21T22:46:11.161Z,4.25
2023-03-21T22:48:40.084Z,4.88
2023-03-21T22:51:09.282Z,4.10
2023-03-21T22:53:38.234Z,4.57
2023-03-21T22:56:08.120Z,4.00
2023-03-21T22:58:38.228Z,4.25
2023-03-21T23:01:07.141Z,4.03
2023-03-21T23:03:35.912Z,4.57
2023-03-21T23:06:04.852Z,5.00
2023-03-21T23:08:33.612Z,4.78
2023-03-21T23:11:07.505Z,4.20
2023-03-21T23:13:37.337Z,4.30
2023-03-21T23:16:08.634Z,4.22
2023-03-21T23:18:38.521Z,4.30
2023-03-21T23:21:13.357Z,5.30
2023-03-21T23:23:43.742Z,4.32
2023-03-21T23:26:12.437Z,5.07
2023-03-21T23:28:42.026Z,5.15
2023-03-21T23:31:14.555Z,5.22
2023-03-21T23:33:43.985Z,5.80
2023-03-21T23:36:15.020Z,6.18
2023-03-21T23:38:44.599Z,4.82
2023-03-21T23:41:15.500Z,5.13
2023-03-21T23:43:44.500Z,5.30
2023-03-21T23:46:15.658Z,4.78
2023-03-21T23:48:45.782Z,5.00
2023-03-21T23:51:16.904Z,5.38
2023-03-21T23:53:46.326Z,6.53
2023-03-21T23:56:16.951Z,5.38
2023-03-21T23:58:45.756Z,5.55
